createdAt,value
2023-08-15T00:00:24.779Z,17.47
2023-08-15T00:02:51.483Z,17.50
2023-08-15T00:05:18.132Z,17.44
2023-08-15T00:08:03.825Z,17.37
2023-08-15T00:10:30.409Z,17.40
2023-08-15T00:12:56.979Z,17.47
2023-08-15T00:15:23.579Z,17.52
2023-08-15T00:17:50.170Z,17.56
2023-08-15T00:20:16.743Z,17.57
2023-08-15T00:22:43.256Z,17.61
2023-08-15T00:25:09.812Z,17.67
2023-08-15T00:27:36.354Z,17.69
2023-08-15T00:30:04.090Z,17.68
2023-08-15T00:32:32.841Z,17.67
2023-08-15T00:34:59.483Z,17.66
2023-08-15T00:37:26.087Z,17.65
2023-08-15T00:39:52.634Z,17.63
2023-08-15T00:42:19.397Z,17.53
2023-08-15T00:44:45.992Z,17.39
2023-08-15T00:47:14.376Z,17.39
2023-08-15T00:49:44.754Z,17.44
2023-08-15T00:52:13.848Z,17.46
2023-08-15T00:54:46.905Z,17.48
2023-08-15T00:57:13.783Z,17.42
2023-08-15T00:59:43.851Z,17.39
2023-08-15T01:02:11.589Z,17.42
2023-08-15T01:04:39.822Z,17.45
2023-08-15T01:07:06.382Z,17.38
2023-08-15T01:09:32.907Z,17.27
2023-08-15T01:12:22.802Z,17.22
2023-08-15T01:14:59.525Z,17.16
2023-08-15T01:17:35.722Z,17.18
2023-08-15T01:20:09.907Z,17.22
2023-08-15T01:22:41.351Z,17.20
2023-08-15T01:25:08.449Z,17.25
2023-08-15T01:27:35.366Z,17.25
2023-08-15T01:30:02.193Z,17.39
2023-08-15T01:32:59.996Z,17.54
2023-08-15T01:35:34.510Z,17.75
2023-08-15T01:38:08.757Z,17.98
2023-08-15T01:40:36.709Z,18.15
2023-08-15T01:43:04.214Z,18.05
2023-08-15T01:45:31.784Z,18.06
2023-08-15T01:47:58.945Z,18.11
2023-08-15T01:50:25.627Z,18.08
2023-08-15T01:52:52.210Z,18.12
2023-08-15T01:55:18.794Z,18.24
2023-08-15T01:57:45.455Z,18.18
2023-08-15T02:00:12.416Z,18.17
2023-08-15T02:02:44.681Z,18.11
2023-08-15T02:05:14.424Z,18.12
2023-08-15T02:07:41.591Z,18.07
2023-08-15T02:10:08.469Z,18.03
2023-08-15T02:12:35.030Z,18.01
2023-08-15T02:15:01.715Z,17.96
2023-08-15T02:17:28.325Z,17.93
2023-08-15T02:19:57.732Z,17.91
2023-08-15T02:22:24.274Z,17.98
2023-08-15T02:24:50.924Z,17.88
2023-08-15T02:27:17.490Z,17.82
2023-08-15T02:29:44.036Z,17.76
2023-08-15T02:32:13.168Z,17.78
2023-08-15T02:34:39.702Z,17.70
2023-08-15T02:37:06.267Z,17.66
2023-08-15T02:39:33.860Z,17.64
2023-08-15T02:42:00.471Z,17.55
2023-08-15T02:44:27.103Z,17.58
2023-08-15T02:46:53.759Z,17.60
2023-08-15T02:49:20.384Z,17.53
2023-08-15T02:51:46.984Z,17.50
2023-08-15T02:54:13.562Z,17.52
2023-08-15T02:56:40.223Z,17.52
2023-08-15T02:59:06.917Z,17.50
2023-08-15T03:01:33.690Z,17.36
2023-08-15T03:04:00.332Z,17.29
2023-08-15T03:06:26.927Z,17.30
2023-08-15T03:08:53.499Z,17.42
2023-08-15T03:11:20.021Z,17.49
2023-08-15T03:13:46.591Z,17.47
2023-08-15T03:16:13.253Z,17.55
2023-08-15T03:18:39.843Z,17.59
2023-08-15T03:21:06.939Z,17.61
2023-08-15T03:23:34.203Z,17.63
2023-08-15T03:26:02.732Z,17.63
2023-08-15T03:28:33.922Z,17.69
2023-08-15T03:31:10.150Z,17.67
2023-08-15T03:33:44.803Z,17.66
2023-08-15T03:36:12.143Z,17.66
2023-08-15T03:38:38.872Z,17.70
2023-08-15T03:41:07.030Z,17.60
2023-08-15T03:43:36.164Z,17.58
2023-08-15T03:46:04.105Z,17.61
2023-08-15T03:48:33.768Z,17.61
2023-08-15T03:51:01.700Z,17.54
2023-08-15T03:53:28.974Z,17.49
2023-08-15T03:55:57.073Z,17.43
2023-08-15T03:58:24.658Z,17.46
2023-08-15T04:00:52.035Z,17.44
2023-08-15T04:03:19.498Z,17.50
2023-08-15T04:05:48.225Z,17.51
2023-08-15T04:08:16.143Z,17.56
2023-08-15T04:10:45.988Z,17.54
2023-08-15T04:13:13.285Z,17.50
2023-08-15T04:15:40.415Z,17.51
2023-08-15T04:18:09.199Z,17.54
2023-08-15T04:20:40.619Z,17.54
2023-08-15T04:23:08.764Z,17.41
2023-08-15T04:25:37.424Z,17.46
2023-08-15T04:28:05.449Z,17.39
2023-08-15T04:30:34.152Z,17.33
2023-08-15T04:33:01.188Z,17.27
2023-08-15T04:35:29.861Z,17.24
2023-08-15T04:37:57.033Z,17.29
2023-08-15T04:40:32.433Z,17.22
2023-08-15T04:43:00.379Z,17.25
2023-08-15T04:45:27.743Z,17.37
2023-08-15T04:47:54.587Z,17.33
2023-08-15T04:50:21.393Z,17.36
2023-08-15T04:52:48.144Z,17.40
2023-08-15T04:55:14.853Z,17.40
2023-08-15T04:57:41.890Z,17.37
2023-08-15T05:00:09.971Z,17.32
2023-08-15T05:02:37.126Z,17.28
2023-08-15T05:05:07.257Z,17.32
2023-08-15T05:07:34.800Z,17.35
2023-08-15T05:10:01.362Z,17.36
2023-08-15T05:12:29.373Z,17.37
2023-08-15T05:14:56.344Z,17.44
2023-08-15T05:17:23.389Z,17.48
2023-08-15T05:19:50.415Z,17.56
2023-08-15T05:22:17.010Z,17.61
2023-08-15T05:24:43.589Z,17.65
2023-08-15T05:27:12.844Z,17.73
2023-08-15T05:29:42.988Z,17.74
2023-08-15T05:32:09.686Z,17.75
2023-08-15T05:34:36.599Z,17.99
2023-08-15T05:37:03.188Z,18.25
2023-08-15T05:39:29.983Z,18.95
2023-08-15T05:41:56.575Z,19.83
2023-08-15T05:44:23.183Z,20.13
2023-08-15T05:46:49.746Z,20.34
2023-08-15T05:49:16.351Z,20.77
2023-08-15T05:51:42.884Z,21.14
2023-08-15T05:54:09.478Z,21.56
2023-08-15T05:56:36.015Z,21.58
2023-08-15T05:59:02.663Z,22.06
2023-08-15T06:01:29.221Z,22.39
2023-08-15T06:03:55.914Z,21.87
2023-08-15T06:06:23.751Z,21.42
2023-08-15T06:08:50.329Z,20.53
2023-08-15T06:11:16.876Z,20.46
2023-08-15T06:13:43.377Z,21.24
2023-08-15T06:16:11.444Z,21.20
2023-08-15T06:18:40.112Z,20.67
2023-08-15T06:21:06.643Z,20.28
2023-08-15T06:23:33.293Z,20.17
2023-08-15T06:25:59.895Z,20.19
2023-08-15T06:28:26.436Z,20.23
2023-08-15T06:30:53.012Z,20.14
2023-08-15T06:33:19.529Z,20.19
2023-08-15T06:35:46.097Z,20.28
2023-08-15T06:38:12.684Z,20.43
2023-08-15T06:40:40.352Z,20.68
2023-08-15T06:43:06.848Z,20.89
2023-08-15T06:45:35.332Z,21.03
2023-08-15T06:48:03.745Z,21.12
2023-08-15T06:50:30.337Z,21.56
2023-08-15T06:52:56.847Z,21.81
2023-08-15T06:55:23.439Z,22.24
2023-08-15T06:57:49.956Z,22.68
2023-08-15T07:00:17.600Z,22.39
2023-08-15T07:02:44.248Z,22.60
2023-08-15T07:05:11.799Z,22.73
2023-08-15T07:07:38.534Z,22.72
2023-08-15T07:10:08.648Z,22.65
2023-08-15T07:12:35.327Z,22.96
2023-08-15T07:15:02.868Z,23.36
2023-08-15T07:17:29.474Z,24.16
2023-08-15T07:19:56.748Z,23.81
2023-08-15T07:22:23.642Z,23.22
2023-08-15T07:24:50.862Z,23.50
2023-08-15T07:27:17.427Z,23.54
2023-08-15T07:29:43.969Z,24.41
2023-08-15T07:32:13.017Z,24.54
2023-08-15T07:34:40.022Z,24.86
2023-08-15T07:37:06.539Z,25.55
2023-08-15T07:39:33.349Z,23.37
2023-08-15T07:42:00.064Z,22.70
2023-08-15T07:44:26.964Z,23.37
2023-08-15T07:46:53.933Z,24.07
2023-08-15T07:49:20.439Z,23.51
2023-08-15T07:51:47.057Z,23.04
2023-08-15T07:54:14.612Z,23.79
2023-08-15T07:56:41.420Z,24.62
2023-08-15T07:59:07.983Z,25.44
2023-08-15T08:01:34.593Z,26.35
2023-08-15T08:04:01.894Z,27.38
2023-08-15T08:06:39.842Z,27.39
2023-08-15T08:09:07.534Z,26.89
2023-08-15T08:11:34.194Z,26.76
2023-08-15T08:14:00.915Z,25.89
2023-08-15T08:16:27.527Z,25.34
2023-08-15T08:18:54.711Z,25.18
2023-08-15T08:21:21.315Z,24.95
2023-08-15T08:23:47.873Z,24.77
2023-08-15T08:26:14.431Z,24.68
2023-08-15T08:28:41.101Z,24.59
2023-08-15T08:31:08.240Z,24.91
2023-08-15T08:33:34.986Z,24.83
2023-08-15T08:36:01.592Z,24.82
2023-08-15T08:38:28.695Z,24.81
2023-08-15T08:40:58.683Z,24.88
2023-08-15T08:43:26.370Z,24.91
2023-08-15T08:45:58.637Z,25.13
2023-08-15T08:48:25.565Z,25.35
2023-08-15T08:50:53.143Z,25.42
2023-08-15T08:53:19.872Z,25.55
2023-08-15T08:55:48.725Z,25.25
2023-08-15T08:58:15.371Z,24.92
2023-08-15T09:00:42.260Z,24.83
2023-08-15T09:03:10.903Z,24.56
2023-08-15T09:05:38.012Z,24.37
2023-08-15T09:08:05.470Z,24.21
2023-08-15T09:10:32.238Z,23.94
2023-08-15T09:13:00.674Z,23.83
2023-08-15T09:15:28.245Z,23.90
2023-08-15T09:18:01.091Z,23.76
2023-08-15T09:20:28.541Z,23.49
2023-08-15T09:22:59.653Z,23.33
2023-08-15T09:25:28.450Z,23.27
2023-08-15T09:27:55.783Z,23.03
2023-08-15T09:30:22.738Z,22.75
2023-08-15T09:32:49.458Z,22.45
2023-08-15T09:35:18.324Z,22.19
2023-08-15T09:37:49.979Z,22.11
2023-08-15T09:40:18.594Z,21.92
2023-08-15T09:42:46.477Z,21.71
2023-08-15T09:45:14.816Z,21.68
2023-08-15T09:47:42.148Z,21.57
2023-08-15T09:50:10.248Z,21.37
2023-08-15T09:52:45.166Z,21.00
2023-08-15T09:55:13.965Z,20.77
2023-08-15T09:57:42.596Z,20.15
2023-08-15T10:00:14.248Z,19.76
2023-08-15T10:02:46.993Z,19.41
2023-08-15T10:05:18.274Z,19.31
2023-08-15T10:07:46.211Z,19.00
2023-08-15T10:10:15.070Z,18.84
2023-08-15T10:12:42.593Z,18.69
2023-08-15T10:15:10.769Z,18.72
2023-08-15T10:17:38.792Z,18.62
2023-08-15T10:20:12.290Z,18.61
2023-08-15T10:22:40.687Z,18.55
2023-08-15T10:25:25.289Z,18.44
2023-08-15T10:27:54.702Z,18.31
2023-08-15T10:30:49.863Z,18.25
2023-08-15T10:33:21.637Z,18.25
2023-08-15T10:35:57.035Z,18.27
2023-08-15T10:38:28.700Z,18.30
2023-08-15T10:41:05.093Z,18.31
2023-08-15T10:43:36.427Z,18.35
2023-08-15T10:46:05.519Z,18.35
2023-08-15T10:51:32.880Z,18.34
2023-08-15T10:54:05.213Z,18.32
2023-08-15T10:56:34.079Z,18.42
2023-08-15T10:59:06.473Z,18.52
2023-08-15T11:01:33.192Z,18.61
2023-08-15T11:04:00.556Z,18.71
2023-08-15T11:06:27.199Z,18.72
2023-08-15T11:08:55.798Z,18.73
2023-08-15T11:11:23.107Z,18.71
2023-08-15T11:13:52.000Z,18.84
2023-08-15T11:16:21.789Z,18.88
2023-08-15T11:18:49.216Z,18.96
2023-08-15T11:21:17.411Z,18.95
2023-08-15T11:23:47.389Z,18.80
2023-08-15T11:26:15.543Z,18.74
2023-08-15T11:28:42.224Z,18.66
2023-08-15T11:31:22.077Z,18.66
2023-08-15T11:33:52.871Z,18.67
2023-08-15T11:36:21.094Z,18.63
2023-08-15T11:38:47.674Z,18.63
2023-08-15T11:41:14.415Z,18.63
2023-08-15T11:43:41.105Z,18.66
2023-08-15T11:46:07.817Z,18.67
2023-08-15T11:48:35.217Z,18.79
2023-08-15T11:51:02.126Z,18.84
2023-08-15T11:53:28.861Z,19.03
2023-08-15T11:55:55.739Z,19.08
2023-08-15T11:58:25.223Z,19.13
2023-08-15T12:00:53.162Z,19.06
2023-08-15T12:03:19.743Z,19.04
2023-08-15T12:05:47.953Z,19.09
2023-08-15T12:08:16.551Z,19.32
2023-08-15T12:10:45.085Z,19.35
2023-08-15T12:13:11.598Z,19.53
2023-08-15T12:15:39.036Z,19.65
2023-08-15T12:18:06.425Z,19.70
2023-08-15T12:20:33.746Z,20.01
2023-08-15T12:23:01.155Z,20.26
2023-08-15T12:25:28.561Z,20.54
2023-08-15T12:27:55.379Z,20.61
2023-08-15T12:30:22.120Z,20.64
2023-08-15T12:32:49.491Z,20.62
2023-08-15T12:35:16.047Z,20.37
2023-08-15T12:37:42.611Z,20.29
2023-08-15T12:40:15.198Z,20.14
2023-08-15T12:42:55.891Z,20.01
2023-08-15T12:45:22.489Z,19.93
2023-08-15T12:47:49.409Z,19.93
2023-08-15T12:50:16.066Z,19.87
2023-08-15T12:52:42.604Z,19.83
2023-08-15T12:55:09.332Z,19.79
2023-08-15T12:57:35.841Z,19.81
2023-08-15T13:00:03.810Z,19.94
2023-08-15T13:02:30.363Z,20.12
2023-08-15T13:04:56.993Z,20.19
2023-08-15T13:07:23.546Z,20.22
2023-08-15T13:09:50.046Z,20.31
2023-08-15T13:12:16.554Z,20.37
2023-08-15T13:14:46.770Z,20.26
2023-08-15T13:17:13.958Z,20.20
2023-08-15T13:19:40.440Z,20.18
2023-08-15T13:22:06.979Z,20.21
2023-08-15T13:24:33.554Z,20.23
2023-08-15T13:27:00.089Z,20.35
2023-08-15T13:29:28.176Z,20.47
2023-08-15T13:31:54.711Z,20.60
2023-08-15T13:34:23.083Z,20.58
2023-08-15T13:36:49.697Z,20.86
2023-08-15T13:39:16.171Z,21.07
2023-08-15T13:41:43.233Z,21.07
2023-08-15T13:44:09.821Z,21.03
2023-08-15T13:46:36.415Z,21.25
2023-08-15T13:49:03.764Z,21.70
2023-08-15T13:51:31.650Z,21.66
2023-08-15T13:53:58.245Z,21.48
2023-08-15T13:56:28.201Z,21.31
2023-08-15T13:58:55.327Z,21.20
2023-08-15T14:01:22.040Z,21.14
2023-08-15T14:03:48.617Z,21.11
2023-08-15T14:06:15.163Z,21.00
2023-08-15T14:08:41.791Z,21.00
2023-08-15T14:11:08.550Z,20.85
2023-08-15T14:13:35.381Z,20.72
2023-08-15T14:16:02.005Z,20.67
2023-08-15T14:18:28.606Z,20.65
2023-08-15T14:20:55.149Z,20.48
2023-08-15T14:23:21.738Z,20.44
2023-08-15T14:25:48.287Z,20.35
2023-08-15T14:28:14.862Z,20.20
2023-08-15T14:30:41.469Z,20.14
2023-08-15T14:33:10.648Z,20.08
2023-08-15T14:35:37.240Z,20.02
2023-08-15T14:38:04.021Z,19.97
2023-08-15T14:40:30.587Z,20.02
2023-08-15T14:42:57.174Z,20.02
2023-08-15T14:45:23.749Z,20.07
2023-08-15T14:47:50.394Z,20.14
2023-08-15T14:50:16.909Z,20.14
2023-08-15T14:52:43.789Z,20.11
2023-08-15T14:55:12.160Z,20.26
2023-08-15T14:57:39.548Z,20.24
2023-08-15T15:00:10.475Z,20.21
2023-08-15T15:02:38.620Z,20.12
2023-08-15T15:05:07.817Z,20.19
2023-08-15T15:07:34.461Z,20.14
2023-08-15T15:10:01.872Z,20.09
2023-08-15T15:12:36.967Z,20.14
2023-08-15T15:15:03.924Z,20.13
2023-08-15T15:17:30.547Z,20.00
2023-08-15T15:19:57.242Z,19.99
2023-08-15T15:22:27.527Z,20.05
2023-08-15T15:25:00.778Z,20.06
2023-08-15T15:27:27.350Z,20.07
2023-08-15T15:29:53.918Z,20.13
2023-08-15T15:32:24.405Z,20.14
2023-08-15T15:34:51.198Z,20.28
2023-08-15T15:37:17.774Z,20.34
2023-08-15T15:39:44.504Z,20.38
2023-08-15T15:42:12.161Z,20.39
2023-08-15T15:44:38.766Z,20.39
2023-08-15T15:47:08.710Z,20.51
2023-08-15T15:49:35.810Z,20.46
2023-08-15T15:52:02.433Z,20.49
2023-08-15T15:54:29.078Z,20.47
2023-08-15T15:56:55.693Z,20.58
2023-08-15T15:59:22.199Z,20.65
2023-08-15T16:01:48.841Z,20.77
2023-08-15T16:04:15.511Z,20.96
2023-08-15T16:06:42.211Z,20.91
2023-08-15T16:09:08.888Z,20.96
2023-08-15T16:11:35.474Z,21.25
2023-08-15T16:14:02.053Z,21.28
2023-08-15T16:16:29.183Z,21.28
2023-08-15T16:18:55.822Z,21.22
2023-08-15T16:21:22.583Z,21.18
2023-08-15T16:23:49.735Z,21.17
2023-08-15T16:26:16.271Z,20.97
2023-08-15T16:28:44.924Z,20.84
2023-08-15T16:31:11.866Z,20.81
2023-08-15T16:33:38.463Z,20.73
2023-08-15T16:36:05.080Z,20.70
2023-08-15T16:38:31.661Z,20.77
2023-08-15T16:40:58.228Z,20.79
2023-08-15T16:43:27.094Z,20.67
2023-08-15T16:45:54.149Z,20.67
2023-08-15T16:48:20.685Z,20.61
2023-08-15T16:50:47.338Z,20.61
2023-08-15T16:53:13.896Z,20.64
2023-08-15T16:55:40.676Z,20.65
2023-08-15T16:58:07.219Z,20.71
2023-08-15T17:00:33.928Z,20.66
2023-08-15T17:03:00.671Z,20.53
2023-08-15T17:05:27.439Z,20.62
2023-08-15T17:07:54.072Z,20.80
2023-08-15T17:10:20.820Z,20.85
2023-08-15T17:12:47.799Z,20.86
2023-08-15T17:15:16.463Z,20.82
2023-08-15T17:17:43.477Z,20.76
2023-08-15T17:20:11.569Z,20.68
2023-08-15T17:22:50.017Z,20.63
2023-08-15T17:25:17.251Z,20.63
2023-08-15T17:27:44.134Z,20.64
2023-08-15T17:30:14.198Z,20.56
2023-08-15T17:32:41.489Z,20.38
2023-08-15T17:35:08.406Z,20.15
2023-08-15T17:37:34.978Z,20.11
2023-08-15T17:40:01.535Z,20.00
2023-08-15T17:42:28.151Z,20.09
2023-08-15T17:44:54.745Z,20.09
2023-08-15T17:47:21.300Z,20.17
2023-08-15T17:49:47.847Z,20.07
2023-08-15T17:52:14.356Z,20.08
2023-08-15T17:54:41.000Z,20.09
2023-08-15T17:57:07.528Z,20.11
2023-08-15T17:59:34.114Z,19.95
2023-08-15T18:02:01.467Z,19.88
2023-08-15T18:04:28.099Z,19.90
2023-08-15T18:06:54.708Z,19.74
2023-08-15T18:09:23.600Z,19.58
2023-08-15T18:11:52.171Z,19.47
2023-08-15T18:14:20.315Z,19.40
2023-08-15T18:16:49.661Z,19.41
2023-08-15T18:19:19.426Z,19.39
2023-08-15T18:21:46.079Z,19.35
2023-08-15T18:24:12.829Z,19.34
2023-08-15T18:26:39.917Z,19.35
2023-08-15T18:29:06.541Z,19.33
2023-08-15T18:31:33.165Z,19.24
2023-08-15T18:34:06.073Z,19.14
2023-08-15T18:37:27.789Z,19.03
2023-08-15T18:39:57.694Z,18.92
2023-08-15T18:42:36.039Z,18.90
2023-08-15T18:45:16.200Z,18.84
2023-08-15T18:47:43.029Z,18.76
2023-08-15T18:50:36.331Z,18.71
2023-08-15T18:53:07.079Z,18.61
2023-08-15T18:57:12.458Z,18.56
2023-08-15T18:59:45.669Z,18.50
2023-08-15T19:02:32.338Z,18.48
2023-08-15T19:04:59.646Z,18.57
2023-08-15T19:07:27.268Z,18.45
2023-08-15T19:09:55.215Z,18.37
2023-08-15T19:12:22.324Z,18.30
2023-08-15T19:14:49.120Z,18.22
2023-08-15T19:17:18.280Z,18.18
2023-08-15T19:19:44.808Z,18.12
2023-08-15T19:22:11.514Z,18.03
2023-08-15T19:24:38.146Z,17.94
2023-08-15T19:27:04.783Z,17.94
2023-08-15T19:29:31.390Z,17.92
2023-08-15T19:31:57.981Z,17.99
2023-08-15T19:34:24.558Z,18.04
2023-08-15T19:36:56.600Z,17.95
2023-08-15T19:39:32.101Z,17.81
2023-08-15T19:41:58.657Z,17.79
2023-08-15T19:44:25.208Z,17.78
2023-08-15T19:46:51.724Z,17.70
2023-08-15T19:49:18.539Z,17.65
2023-08-15T19:51:45.109Z,17.61
2023-08-15T19:54:11.735Z,17.54
2023-08-15T19:56:38.607Z,17.50
2023-08-15T19:59:05.508Z,17.47
2023-08-15T20:01:32.142Z,17.48
2023-08-15T20:03:58.754Z,17.51
2023-08-15T20:06:25.497Z,17.55
2023-08-15T20:08:52.086Z,17.50
2023-08-15T20:11:18.618Z,17.49
2023-08-15T20:13:45.133Z,17.45
2023-08-15T20:16:11.753Z,17.32
2023-08-15T20:18:38.344Z,17.28
2023-08-15T20:21:04.988Z,17.18
2023-08-15T20:23:31.564Z,17.24
2023-08-15T20:25:58.108Z,17.29
2023-08-15T20:28:24.700Z,17.27
2023-08-15T20:30:51.310Z,17.31
2023-08-15T20:33:17.963Z,17.31
2023-08-15T20:35:44.569Z,17.32
2023-08-15T20:38:11.101Z,17.23
2023-08-15T20:40:37.899Z,17.14
2023-08-15T20:43:04.636Z,17.03
2023-08-15T20:45:31.159Z,16.98
2023-08-15T20:47:57.785Z,16.94
2023-08-15T20:50:24.340Z,16.97
2023-08-15T20:52:51.738Z,16.99
2023-08-15T20:55:18.323Z,16.99
2023-08-15T20:57:44.882Z,16.98
2023-08-15T21:00:11.896Z,16.89
2023-08-15T21:02:38.531Z,16.88
2023-08-15T21:05:05.974Z,16.90
2023-08-15T21:07:32.510Z,16.91
2023-08-15T21:09:59.014Z,16.87
2023-08-15T21:12:25.748Z,16.87
2023-08-15T21:14:52.341Z,16.85
2023-08-15T21:17:18.917Z,16.75
2023-08-15T21:19:45.533Z,16.58
2023-08-15T21:22:12.057Z,16.54
2023-08-15T21:24:39.820Z,16.59
2023-08-15T21:27:06.353Z,16.58
2023-08-15T21:29:32.938Z,16.60
2023-08-15T21:31:59.771Z,16.52
2023-08-15T21:34:26.318Z,16.40
2023-08-15T21:36:52.825Z,16.36
2023-08-15T21:39:19.350Z,16.35
2023-08-15T21:41:45.908Z,16.32
2023-08-15T21:44:12.422Z,16.27
2023-08-15T21:46:39.059Z,16.25
2023-08-15T21:49:05.585Z,16.24
2023-08-15T21:51:32.101Z,16.25
2023-08-15T21:53:58.626Z,16.28
2023-08-15T21:56:25.198Z,16.31
2023-08-15T21:58:51.789Z,16.30
2023-08-15T22:01:18.445Z,16.29
2023-08-15T22:03:45.079Z,16.28
2023-08-15T22:06:11.739Z,16.25
2023-08-15T22:08:38.338Z,16.22
2023-08-15T22:11:06.327Z,16.22
2023-08-15T22:13:33.044Z,16.21
2023-08-15T22:16:01.530Z,16.16
2023-08-15T22:18:28.249Z,16.09
2023-08-15T22:20:54.975Z,16.10
2023-08-15T22:23:21.923Z,16.09
2023-08-15T22:25:48.868Z,16.07
2023-08-15T22:28:16.255Z,15.95
2023-08-15T22:30:42.931Z,15.83
2023-08-15T22:33:09.562Z,15.79
2023-08-15T22:35:41.608Z,15.77
2023-08-15T22:38:08.584Z,15.71
2023-08-15T22:40:35.628Z,15.73
2023-08-15T22:43:02.236Z,15.81
2023-08-15T22:45:28.885Z,15.72
2023-08-15T22:47:55.578Z,15.67
2023-08-15T22:50:22.202Z,15.66
2023-08-15T22:52:49.237Z,15.63
2023-08-15T22:55:15.811Z,15.56
2023-08-15T22:57:42.494Z,15.59
2023-08-15T23:00:10.861Z,15.69
2023-08-15T23:02:38.104Z,15.73
2023-08-15T23:05:05.017Z,15.74
2023-08-15T23:07:31.564Z,15.76
2023-08-15T23:09:58.317Z,15.76
2023-08-15T23:12:24.866Z,15.76
2023-08-15T23:14:51.398Z,15.70
2023-08-15T23:17:18.017Z,15.60
2023-08-15T23:19:44.589Z,15.52
2023-08-15T23:22:11.122Z,15.51
2023-08-15T23:24:38.408Z,15.48
2023-08-15T23:27:05.154Z,15.44
2023-08-15T23:29:31.731Z,15.44
2023-08-15T23:31:59.667Z,15.44
2023-08-15T23:34:26.421Z,15.41
2023-08-15T23:36:53.090Z,15.39
2023-08-15T23:39:22.209Z,15.29
2023-08-15T23:41:49.485Z,15.28
2023-08-15T23:44:16.442Z,15.40
2023-08-15T23:46:43.807Z,15.28
2023-08-15T23:49:10.387Z,15.36
2023-08-15T23:51:36.900Z,15.28
2023-08-15T23:54:03.582Z,15.29
2023-08-15T23:56:30.139Z,15.41
2023-08-15T23:58:56.722Z,15.36
